Time;durP1;ratioP1;P1;durP2;ratioP2;P2;SDS_P1;SDS_P2;PMS_P1;PMS_P2;Temp;Humidity;BMP_temperature;BMP_pressure;BME280_temperature;BME280_humidity;BME280_pressure;Samples;Min_cycle;Max_cycle;Signal;HPM_P1;HPM_P2
2024/02/08 00:00:35;;;;;;;6.90;4.70;;;;;;;25.06;23.12;99800.35;109414;1263;67098;-89
2024/02/08 00:03:04;;;;;;;7.10;5.40;;;;;;;25.06;23.03;99803.48;109430;1263;67497;-90
2024/02/08 00:05:29;;;;;;;7.40;4.70;;;;;;;25.06;23.26;99801.83;109354;1263;75185;-90
2024/02/08 00:07:59;;;;;;;7.60;4.90;;;;;;;25.06;23.23;99800.27;109325;1263;67492;-90
2024/02/08 00:10:34;;;;;;;7.70;5.00;;;;;;;25.06;23.16;99803.67;109363;1263;67581;-90
2024/02/08 00:15:52;;;;;;;6.30;4.70;;;;;;;25.07;23.08;99808.70;109477;1263;67488;-89
2024/02/08 00:18:18;;;;;;;8.50;5.10;;;;;;;25.08;23.22;99800.92;109503;1262;67861;-89
2024/02/08 00:20:53;;;;;;;6.80;5.00;;;;;;;25.08;23.23;99796.85;109511;1262;67486;-89
2024/02/08 00:26:20;;;;;;;6.80;4.80;;;;;;;25.07;23.03;99792.09;109423;1265;67655;-88
2024/02/08 00:28:45;;;;;;;7.00;4.90;;;;;;;25.07;22.95;99791.25;109388;1264;67526;-87
2024/02/08 00:31:15;;;;;;;6.90;4.70;;;;;;;25.07;23.10;99792.55;109380;1264;67498;-89
2024/02/08 00:33:43;;;;;;;8.00;4.90;;;;;;;25.07;23.10;99793.56;109302;1264;67533;-90
2024/02/08 00:36:10;;;;;;;7.20;4.90;;;;;;;25.08;23.16;99788.94;109308;1266;67514;-90
2024/02/08 00:38:40;;;;;;;7.30;5.00;;;;;;;25.08;23.21;99783.41;109370;1264;67611;-90
2024/02/08 00:41:09;;;;;;;8.70;5.30;;;;;;;25.08;22.99;99782.55;109328;1264;67505;-91
2024/02/08 00:46:28;;;;;;;7.90;5.00;;;;;;;25.07;23.12;99781.79;109481;1262;67922;-90
2024/02/08 00:54:29;;;;;;;6.10;4.70;;;;;;;25.06;23.07;99786.64;109466;1264;67978;-89
2024/02/08 00:56:55;;;;;;;5.10;4.40;;;;;;;25.06;23.15;99780.98;109231;1262;67689;-90
2024/02/08 00:59:24;;;;;;;7.80;4.60;;;;;;;25.06;23.23;99778.98;109486;1262;66902;-90
2024/02/08 01:01:49;;;;;;;7.00;5.10;;;;;;;25.06;23.01;99780.30;109480;1262;67564;-90
2024/02/08 01:04:41;;;;;;;8.90;5.60;;;;;;;25.06;23.00;99783.98;109348;1263;67456;-89
2024/02/08 01:07:07;;;;;;;12.40;5.50;;;;;;;25.06;22.96;99782.95;109365;1262;67441;-90
2024/02/08 01:09:36;;;;;;;6.10;4.80;;;;;;;25.06;22.96;99782.95;109349;1263;67559;-89
2024/02/08 01:12:04;;;;;;;7.20;5.00;;;;;;;25.06;22.81;99783.82;109346;1262;66887;-89
2024/02/08 01:14:30;;;;;;;7.60;5.30;;;;;;;25.06;22.92;99781.39;109399;1263;66933;-89
2024/02/08 01:16:56;;;;;;;6.80;4.80;;;;;;;25.06;23.05;99779.55;109403;1263;67641;-89
2024/02/08 01:19:25;;;;;;;6.80;4.90;;;;;;;25.07;23.08;99780.30;109418;1262;67697;-90
2024/02/08 01:32:55;;;;;;;6.80;5.30;;;;;;;25.05;23.10;99781.70;109371;1263;67571;-90
2024/02/08 01:35:24;;;;;;;7.60;5.40;;;;;;;25.05;23.10;99783.59;109381;1263;67051;-90
2024/02/08 01:37:53;;;;;;;7.80;5.60;;;;;;;25.04;22.94;99779.44;109317;1263;67688;-89
2024/02/08 01:40:24;;;;;;;7.10;5.00;;;;;;;25.05;23.17;99785.13;109240;1264;67516;-90
2024/02/08 01:42:58;;;;;;;7.70;5.10;;;;;;;25.05;23.07;99788.23;109381;1263;67581;-93
2024/02/08 01:45:31;;;;;;;7.20;5.20;;;;;;;25.05;22.93;99787.66;109370;1263;66820;-89
2024/02/08 01:48:15;;;;;;;8.00;5.30;;;;;;;25.05;23.05;99791.07;109324;1263;72450;-89
2024/02/08 01:50:56;;;;;;;7.90;5.30;;;;;;;25.04;23.18;99790.05;109216;1264;66923;-90
2024/02/08 01:53:27;;;;;;;7.30;4.90;;;;;;;25.04;23.17;99786.80;109463;1262;66893;-90
2024/02/08 01:55:53;;;;;;;;;;;;;;;25.05;23.09;99788.12;109365;1263;67595;-89
2024/02/08 02:01:10;;;;;;;5.80;4.70;;;;;;;25.01;22.99;99795.69;109440;1263;72356;-89
2024/02/08 02:06:27;;;;;;;6.60;4.80;;;;;;;25.02;23.23;99794.94;109446;1262;67499;-90
2024/02/08 02:08:57;;;;;;;6.80;5.00;;;;;;;25.03;23.00;99794.45;109321;1262;67420;-89
2024/02/08 02:11:37;;;;;;;7.30;5.20;;;;;;;25.03;22.93;99795.40;109392;1262;67555;-89
2024/02/08 02:14:07;;;;;;;8.50;5.20;;;;;;;25.03;23.12;99796.54;109353;1263;74079;-89
2024/02/08 02:16:33;;;;;;;5.80;5.00;;;;;;;25.03;23.09;99793.73;109343;1263;67665;-90
2024/02/08 02:19:03;;;;;;;6.50;5.20;;;;;;;25.03;23.15;99793.17;109175;1262;66900;-90
2024/02/08 02:21:29;;;;;;;10.00;5.30;;;;;;;25.03;23.00;99787.06;109432;1263;67546;-89
2024/02/08 02:23:55;;;;;;;5.60;4.80;;;;;;;25.03;23.00;99793.16;109257;1263;67259;-89
2024/02/08 02:26:20;;;;;;;6.10;5.00;;;;;;;25.03;23.12;99796.67;109336;1264;68195;-87
2024/02/08 02:28:46;;;;;;;6.30;4.80;;;;;;;25.04;23.01;99800.57;109221;1263;67640;-89
2024/02/08 02:31:26;;;;;;;;;;;;;;;;;;;;;
2024/02/08 02:34:00;;;;;;;6.50;5.10;;;;;;;25.03;23.11;99801.06;109453;1262;66904;-87
2024/02/08 02:36:25;;;;;;;6.00;5.10;;;;;;;25.02;23.01;99801.02;109288;1263;67104;-87
2024/02/08 02:38:51;;;;;;;5.90;5.10;;;;;;;25.02;23.04;99802.98;109232;1262;67664;-87
2024/02/08 02:41:18;;;;;;;7.30;5.40;;;;;;;25.03;23.10;99800.94;109344;1263;67516;-87
2024/02/08 02:43:44;;;;;;;6.60;5.10;;;;;;;25.02;23.08;99797.21;109384;1263;67517;-89
2024/02/08 02:46:10;;;;;;;7.20;5.20;;;;;;;25.03;23.04;99793.28;109323;1262;67234;-89
2024/02/08 02:54:09;;;;;;;6.80;4.70;;;;;;;25.01;23.09;99798.48;109332;1264;66828;-89
2024/02/08 02:56:38;;;;;;;6.00;5.20;;;;;;;25.00;22.95;99794.33;109432;1264;66924;-89
2024/02/08 02:59:08;;;;;;;6.80;5.20;;;;;;;25.01;23.04;99799.72;109454;1262;72990;-89
2024/02/08 03:01:42;;;;;;;5.60;4.90;;;;;;;25.01;22.90;99800.07;109336;1261;67678;-90
2024/02/08 03:04:17;;;;;;;6.20;5.10;;;;;;;25.01;23.02;99802.86;109289;1263;67565;-89
2024/02/08 03:06:45;;;;;;;7.40;5.20;;;;;;;25.00;23.04;99807.05;109312;1263;67640;-89
2024/02/08 03:11:57;;;;;;;6.40;4.90;;;;;;;24.99;22.94;99802.40;109469;1262;71481;-88
2024/02/08 03:14:24;;;;;;;7.10;5.10;;;;;;;24.99;23.03;99806.52;109492;1262;67487;-88
2024/02/08 03:16:50;;;;;;;6.00;5.00;;;;;;;24.99;23.03;99810.69;109489;1263;67524;-88
2024/02/08 03:19:17;;;;;;;6.60;5.20;;;;;;;24.99;23.02;99808.31;109309;1263;67473;-88
2024/02/08 03:21:45;;;;;;;7.50;5.60;;;;;;;24.99;23.07;99807.45;109474;1263;66785;-89
2024/02/08 03:24:12;;;;;;;6.40;5.10;;;;;;;24.98;23.09;99809.11;109262;1263;75168;-88
2024/02/08 03:26:43;;;;;;;6.20;5.20;;;;;;;24.98;23.07;99807.05;109428;1263;66895;-88
2024/02/08 03:29:12;;;;;;;5.80;5.20;;;;;;;24.97;23.23;99802.04;109423;1263;66893;-88
2024/02/08 03:31:47;;;;;;;7.60;5.40;;;;;;;24.97;22.92;99804.86;109468;1263;67577;-88
2024/02/08 03:34:23;;;;;;;6.40;5.30;;;;;;;24.96;23.16;99808.86;109313;1263;66865;-88
2024/02/08 03:36:51;;;;;;;7.90;5.80;;;;;;;24.95;23.12;99812.06;109281;1263;73916;-88
2024/02/08 03:42:01;;;;;;;6.70;5.20;;;;;;;24.94;22.99;99813.69;109289;1264;67629;-88
2024/02/08 03:44:30;;;;;;;7.60;5.30;;;;;;;24.94;22.99;99813.91;109283;1263;67681;-88
2024/02/08 03:49:51;;;;;;;6.60;5.40;;;;;;;24.93;23.01;99806.47;109231;1264;82784;-89
2024/02/08 03:52:18;;;;;;;8.00;5.20;;;;;;;24.92;23.01;99806.50;109230;1264;67602;-90
2024/02/08 03:54:45;;;;;;;9.30;5.40;;;;;;;24.92;22.83;99809.59;109187;1264;67407;-90
2024/02/08 03:59:54;;;;;;;9.50;6.60;;;;;;;24.90;23.04;99816.23;109401;1264;67462;-89
2024/02/08 04:05:19;;;;;;;9.00;6.60;;;;;;;24.85;23.05;99818.72;109533;1261;66990;-90
2024/02/08 04:55:10;;;;;;;12.60;7.80;;;;;;;23.13;24.38;99843.93;109426;1262;67581;-87
2024/02/08 04:57:37;;;;;;;11.10;7.70;;;;;;;23.15;24.33;99845.67;109295;1263;83855;-87
2024/02/08 05:00:03;;;;;;;19.30;10.30;;;;;;;23.17;24.27;99847.14;109394;1262;72242;-91
2024/02/08 05:02:31;;;;;;;14.60;11.40;;;;;;;23.18;24.23;99843.22;109380;1262;66865;-86
2024/02/08 05:04:56;;;;;;;17.00;12.50;;;;;;;23.20;24.17;99846.22;109157;1263;67495;-87
2024/02/08 05:07:26;;;;;;;16.40;11.70;;;;;;;23.21;24.17;99844.97;109393;1262;67530;-86
2024/02/08 05:09:51;;;;;;;15.50;10.80;;;;;;;23.23;24.13;99849.98;109403;1262;81758;-87
2024/02/08 05:12:19;;;;;;;14.20;9.80;;;;;;;23.23;24.18;99847.61;109285;1262;67002;-88
2024/02/08 05:14:45;;;;;;;13.50;10.10;;;;;;;23.24;24.07;99844.45;109353;1262;67557;-87
2024/02/08 05:17:13;;;;;;;15.00;9.70;;;;;;;23.25;24.12;99846.08;109268;1263;67690;-87
2024/02/08 05:19:43;;;;;;;15.30;9.00;;;;;;;23.26;23.95;99846.02;109370;1263;74248;-89
2024/02/08 05:22:13;;;;;;;15.00;8.50;;;;;;;23.26;23.96;99848.27;109305;1263;74141;-88
2024/02/08 05:24:41;;;;;;;14.60;8.50;;;;;;;23.26;23.96;99848.06;109406;1263;72395;-87
2024/02/08 05:27:07;;;;;;;13.80;7.80;;;;;;;23.27;23.97;99848.78;109230;1263;67734;-90
2024/02/08 05:29:39;;;;;;;18.70;9.10;;;;;;;23.26;23.91;99846.23;109244;1263;67003;-88
2024/02/08 05:35:19;;;;;;;17.80;8.50;;;;;;;23.26;23.78;99846.99;109338;1264;80102;-92
2024/02/08 05:41:07;;;;;;;16.60;8.90;;;;;;;23.23;23.88;99854.76;109328;1263;67252;-88
2024/02/08 06:03:33;;;;;;;24.20;8.20;;;;;;;23.67;23.39;99850.38;109373;1260;68100;31
2024/02/08 07:41:53;;;;;;;19.50;10.60;;;;;;;23.92;24.57;99862.59;109118;1260;72248;-89
2024/02/08 07:50:44;;;;;;;19.30;10.10;;;;;;;23.90;24.27;99876.52;109208;1259;69805;-93
2024/02/08 08:07:59;;;;;;;27.20;9.50;;;;;;;23.80;24.22;99881.86;109042;1259;73091;-90
2024/02/08 10:03:36;;;;;;;37.30;9.30;;;;;;;24.26;25.10;99871.92;109647;1259;66923;-90
2024/02/08 10:09:08;;;;;;;40.10;9.20;;;;;;;24.30;24.98;99864.95;109444;1259;75272;-89
2024/02/08 10:11:45;;;;;;;34.10;9.70;;;;;;;24.31;25.08;99860.30;109383;1260;67387;-90
2024/02/08 10:14:32;;;;;;;39.30;9.60;;;;;;;24.34;24.94;99857.71;109315;1266;67692;-89
2024/02/08 10:34:09;;;;;;;29.00;8.70;;;;;;;24.40;24.81;99825.84;109620;1259;66863;-90
2024/02/08 10:36:39;;;;;;;36.20;8.90;;;;;;;24.44;24.78;99816.85;109566;1260;73998;-90
2024/02/08 10:39:23;;;;;;;24.30;8.50;;;;;;;24.46;24.72;99812.54;109456;1258;67103;-90
2024/02/08 10:44:24;;;;;;;33.40;9.00;;;;;;;24.53;24.80;99801.06;109201;1263;67651;-88
2024/02/08 10:52:19;;;;;;;21.30;8.50;;;;;;;24.57;24.81;99788.86;109595;1258;67679;-90
2024/02/08 11:50:50;;;;;;;17.90;6.70;;;;;;;24.81;24.77;99746.02;109624;1259;67759;-89
2024/02/08 11:56:20;;;;;;;24.80;6.90;;;;;;;24.85;24.71;99739.58;109674;1261;67015;-90
2024/02/08 11:58:47;;;;;;;19.80;6.70;;;;;;;24.87;24.73;99734.48;109338;1261;67439;-88
2024/02/08 12:21:00;;;;;;;23.20;6.00;;;;;;;25.00;24.63;99717.18;109614;1259;67601;-90
2024/02/08 12:23:40;;;;;;;14.80;5.90;;;;;;;25.01;24.42;99716.13;109463;1260;67614;-90
2024/02/08 12:32:16;;;;;;;29.70;6.50;;;;;;;25.04;24.27;99712.29;109626;1258;67811;-90
2024/02/08 12:40:42;;;;;;;18.70;5.80;;;;;;;25.09;24.10;99699.44;109573;1260;67201;-86
2024/02/08 12:51:39;;;;;;;26.90;6.50;;;;;;;25.12;23.97;99696.58;109633;1259;67871;-90
2024/02/08 13:02:45;;;;;;;16.90;5.60;;;;;;;25.13;23.98;99685.67;109592;1260;67005;-91
2024/02/08 13:25:43;;;;;;;16.80;5.00;;;;;;;25.20;23.48;99671.51;109760;1259;72728;-89
2024/02/08 13:30:58;;;;;;;19.80;5.10;;;;;;;25.22;23.54;99675.77;109328;1262;67513;-90
2024/02/08 18:57:16;;;;;;;11.10;5.50;;;;;;;25.50;21.70;99772.80;109801;1259;71467;-92
2024/02/08 21:09:38;;;;;;;9.40;6.30;;;;;;;25.64;21.63;99763.63;109413;1257;554590;-91
